TimeEST,TemperatureF,Dew PointF,Humidity,Sea Level PressureIn,VisibilityMPH,Wind Direction,Wind SpeedMPH,Gust SpeedMPH,PrecipitationIn,Events,Conditions,WindDirDegrees,DateUTC
12:53 AM,42.1,33.1,70,30.16,10.0,WNW,9.2,16.1,N/A,,Scattered Clouds,300,2013-01-18 05:53:00
1:02 AM,42.8,33.8,70,30.17,10.0,WNW,8.1,-,N/A,,Mostly Cloudy,300,2013-01-18 06:02:00
1:53 AM,43.0,34.0,71,30.19,10.0,NW,10.4,-,N/A,,Overcast,320,2013-01-18 06:53:00
2:53 AM,44.1,35.1,71,30.20,10.0,NW,4.6,-,N/A,,Overcast,310,2013-01-18 07:53:00
3:38 AM,42.8,35.6,76,30.22,10.0,NW,3.5,-,N/A,,Scattered Clouds,310,2013-01-18 08:38:00
3:53 AM,43.0,36.0,76,30.23,10.0,NW,5.8,-,N/A,,Partly Cloudy,320,2013-01-18 08:53:00
4:05 AM,44.6,35.6,71,30.23,10.0,NNW,3.5,-,N/A,,Mostly Cloudy,330,2013-01-18 09:05:00
4:42 AM,42.8,37.4,81,30.25,10.0,NNW,8.1,-,N/A,,Scattered Clouds,340,2013-01-18 09:42:00
4:53 AM,43.0,37.0,80,30.25,10.0,NNW,5.8,-,N/A,,Clear,330,2013-01-18 09:53:00
5:53 AM,43.0,37.9,82,30.28,10.0,NNW,5.8,-,N/A,,Partly Cloudy,340,2013-01-18 10:53:00
6:53 AM,46.0,37.9,73,30.30,10.0,North,11.5,19.6,N/A,,Clear,10,2013-01-18 11:53:00
7:53 AM,46.9,36.0,66,30.34,10.0,North,12.7,-,N/A,,Clear,10,2013-01-18 12:53:00
8:53 AM,48.9,36.0,61,30.38,10.0,NNE,15.0,21.9,N/A,,Clear,20,2013-01-18 13:53:00
9:53 AM,50.0,37.0,61,30.41,10.0,NNE,13.8,25.3,N/A,,Clear,30,2013-01-18 14:53:00
10:53 AM,52.0,37.9,59,30.43,10.0,NNE,17.3,28.8,N/A,,Partly Cloudy,30,2013-01-18 15:53:00
11:53 AM,53.1,36.0,52,30.43,10.0,NNE,20.7,27.6,N/A,,Clear,30,2013-01-18 16:53:00
12:53 PM,54.0,34.0,47,30.41,10.0,NNE,16.1,26.5,N/A,,Clear,20,2013-01-18 17:53:00
1:53 PM,55.0,32.0,42,30.41,10.0,ENE,16.1,26.5,N/A,,Clear,60,2013-01-18 18:53:00
2:53 PM,55.0,30.0,38,30.41,10.0,NE,16.1,24.2,N/A,,Clear,40,2013-01-18 19:53:00
3:53 PM,55.0,30.9,40,30.41,10.0,NE,15.0,-,N/A,,Clear,40,2013-01-18 20:53:00
4:53 PM,53.1,30.9,43,30.43,10.0,NE,11.5,-,N/A,,Clear,40,2013-01-18 21:53:00
5:53 PM,51.1,30.9,46,30.44,10.0,NE,9.2,-,N/A,,Clear,40,2013-01-18 22:53:00
6:53 PM,51.1,32.0,48,30.45,10.0,NE,10.4,-,N/A,,Clear,40,2013-01-18 23:53:00
7:53 PM,50.0,34.0,54,30.45,10.0,NE,6.9,-,N/A,,Clear,40,2013-01-19 00:53:00
8:53 PM,52.0,36.0,54,30.45,10.0,NNE,10.4,-,N/A,,Scattered Clouds,30,2013-01-19 01:53:00
9:53 PM,52.0,37.9,59,30.45,10.0,NNE,9.2,-,N/A,,Mostly Cloudy,30,2013-01-19 02:53:00
10:53 PM,52.0,39.0,61,30.42,10.0,NNE,9.2,-,N/A,,Clear,20,2013-01-19 03:53:00
11:53 PM,48.9,39.0,69,30.40,10.0,NNW,8.1,-,N/A,,Clear,340,2013-01-19 04:53:00